createdAt,value
2019-04-05T00:00:31.365Z,55.80
2019-04-05T00:03:00.887Z,55.80
2019-04-05T00:05:30.189Z,55.80
2019-04-05T00:07:59.487Z,55.80
2019-04-05T00:10:29.113Z,56.00
2019-04-05T00:12:58.891Z,55.90
2019-04-05T00:15:30.648Z,56.00
2019-04-05T00:17:59.913Z,56.00
2019-04-05T00:20:30.268Z,56.10
2019-04-05T00:23:00.044Z,56.10
2019-04-05T00:25:29.725Z,56.10
2019-04-05T00:27:59.908Z,56.10
2019-04-05T00:30:29.228Z,56.10
2019-04-05T00:32:58.517Z,56.10
2019-04-05T00:35:27.931Z,56.00
2019-04-05T00:37:57.233Z,56.10
2019-04-05T00:40:26.529Z,56.10
2019-04-05T00:42:56.454Z,56.10
2019-04-05T00:45:28.442Z,56.10
2019-04-05T00:47:56.674Z,56.10
2019-04-05T00:50:25.949Z,56.10
2019-04-05T00:52:55.267Z,56.10
2019-04-05T00:55:24.610Z,56.10
2019-04-05T00:57:54.339Z,56.10
2019-04-05T01:00:23.979Z,56.10
2019-04-05T01:02:53.594Z,56.10
2019-04-05T01:05:22.980Z,56.10
2019-04-05T01:07:52.689Z,56.20
2019-04-05T01:10:22.116Z,56.20
2019-04-05T01:12:52.133Z,56.30
2019-04-05T01:15:21.904Z,56.40
2019-04-05T01:17:51.982Z,56.40
2019-04-05T01:20:21.267Z,56.50
2019-04-05T01:22:50.840Z,56.40
2019-04-05T01:25:21.211Z,56.50
2019-04-05T01:27:51.427Z,56.50
2019-04-05T01:30:20.814Z,56.50
2019-04-05T01:32:50.515Z,56.60
2019-04-05T01:35:19.816Z,56.50
2019-04-05T01:37:49.556Z,56.60
2019-04-05T01:40:19.249Z,56.60
2019-04-05T01:42:49.327Z,56.80
2019-04-05T01:45:18.748Z,56.60
2019-04-05T01:47:48.827Z,56.70
2019-04-05T01:50:18.729Z,56.70
2019-04-05T01:52:48.605Z,56.70
2019-04-05T01:55:17.931Z,56.80
2019-04-05T01:57:47.390Z,56.70
2019-04-05T02:00:16.688Z,56.80
2019-04-05T02:02:46.391Z,56.80
2019-04-05T02:05:16.066Z,57.40
2019-04-05T02:07:45.943Z,56.80
2019-04-05T02:10:15.479Z,56.80
2019-04-05T02:12:44.931Z,56.80
2019-04-05T02:15:15.504Z,56.80
2019-04-05T02:17:44.810Z,56.80
2019-04-05T02:20:14.400Z,56.90
2019-04-05T02:22:44.028Z,56.90
2019-04-05T02:25:13.599Z,56.90
2019-04-05T02:27:43.085Z,56.90
2019-04-05T02:30:12.760Z,56.90
2019-04-05T02:32:42.395Z,56.90
2019-04-05T02:35:12.077Z,56.90
2019-04-05T02:37:41.699Z,56.90
2019-04-05T02:40:12.433Z,56.90
2019-04-05T02:42:42.966Z,56.90
2019-04-05T02:45:12.657Z,56.90
2019-04-05T02:47:43.189Z,56.90
2019-04-05T02:50:15.929Z,56.90
2019-04-05T02:52:45.640Z,56.90
2019-04-05T02:55:15.059Z,56.90
2019-04-05T02:57:45.359Z,56.90
2019-04-05T03:00:14.907Z,56.90
2019-04-05T03:02:44.779Z,56.90
2019-04-05T03:05:14.434Z,56.90
2019-04-05T03:07:44.069Z,57.30
2019-04-05T03:10:14.637Z,56.90
2019-04-05T03:12:43.931Z,56.90
2019-04-05T03:15:13.341Z,56.90
2019-04-05T03:17:43.013Z,56.90
2019-04-05T03:20:12.582Z,56.90
2019-04-05T03:22:42.106Z,56.80
2019-04-05T03:25:11.517Z,56.90
2019-04-05T03:27:41.195Z,56.90
2019-04-05T03:30:10.646Z,56.90
2019-04-05T03:32:40.447Z,56.80
2019-04-05T03:35:10.021Z,56.80
2019-04-05T03:37:39.306Z,56.80
2019-04-05T03:40:09.170Z,56.80
2019-04-05T03:42:39.273Z,56.80
2019-04-05T03:45:09.000Z,56.80
2019-04-05T03:47:38.598Z,56.80
2019-04-05T03:50:07.977Z,56.70
2019-04-05T03:52:37.354Z,56.00
2019-04-05T03:55:07.335Z,55.30
2019-04-05T03:57:36.861Z,55.20
2019-04-05T04:00:07.138Z,55.10
2019-04-05T04:02:36.777Z,55.00
2019-04-05T04:05:06.459Z,54.90
2019-04-05T04:07:36.306Z,54.90
2019-04-05T04:10:06.650Z,55.00
2019-04-05T04:12:36.673Z,54.80
2019-04-05T04:15:16.484Z,54.80
2019-04-05T04:17:46.034Z,55.30
2019-04-05T04:20:33.754Z,55.20
2019-04-05T04:23:03.300Z,55.10
2019-04-05T04:25:32.594Z,55.10
2019-04-05T04:28:02.213Z,55.10
2019-04-05T04:30:31.918Z,54.90
2019-04-05T04:33:02.127Z,55.00
2019-04-05T04:35:32.081Z,54.90
2019-04-05T04:38:02.165Z,54.80
2019-04-05T04:40:31.843Z,54.80
2019-04-05T04:43:01.907Z,54.80
2019-04-05T04:45:31.317Z,54.70
2019-04-05T04:48:01.157Z,54.60
2019-04-05T04:50:30.664Z,54.60
2019-04-05T04:53:00.562Z,54.50
2019-04-05T04:55:29.809Z,54.50
2019-04-05T04:57:59.595Z,54.50
2019-04-05T05:00:29.116Z,54.40
2019-04-05T05:02:59.017Z,54.50
2019-04-05T05:05:28.408Z,54.50
2019-04-05T05:07:57.769Z,54.30
2019-04-05T05:10:27.638Z,54.30
2019-04-05T05:12:56.918Z,54.90
2019-04-05T05:15:27.424Z,54.20
2019-04-05T05:17:58.725Z,54.20
2019-04-05T05:20:28.437Z,54.20
2019-04-05T05:22:58.057Z,54.00
2019-04-05T05:25:27.566Z,54.00
2019-04-05T05:27:57.335Z,54.20
2019-04-05T05:30:27.324Z,52.90
2019-04-05T05:32:56.595Z,53.70
2019-04-05T05:35:26.104Z,53.70
2019-04-05T05:37:55.700Z,53.30
2019-04-05T05:40:34.849Z,53.60
2019-04-05T05:42:56.081Z,53.50
2019-04-05T05:45:25.727Z,53.30
2019-04-05T05:47:55.102Z,53.00
2019-04-05T05:50:24.975Z,52.90
2019-04-05T05:52:54.645Z,52.80
2019-04-05T05:55:24.003Z,52.70
2019-04-05T05:57:54.866Z,52.80
2019-04-05T06:00:24.912Z,52.70
2019-04-05T06:02:54.136Z,52.70
2019-04-05T06:05:23.793Z,52.60
2019-04-05T06:07:53.427Z,52.50
2019-04-05T06:10:22.789Z,52.60
2019-04-05T06:12:52.217Z,52.40
2019-04-05T06:15:21.485Z,52.40
2019-04-05T06:18:03.877Z,52.30
2019-04-05T06:20:21.916Z,52.10
2019-04-05T06:22:51.525Z,52.10
2019-04-05T06:25:21.267Z,52.10
2019-04-05T06:27:50.818Z,52.10
2019-04-05T06:30:20.626Z,52.20
2019-04-05T06:32:50.275Z,52.10
2019-04-05T06:35:19.856Z,52.30
2019-04-05T06:37:49.659Z,52.30
2019-04-05T06:40:18.970Z,52.40
2019-04-05T06:42:48.457Z,52.20
2019-04-05T06:45:17.904Z,52.20
2019-04-05T06:47:47.656Z,52.10
2019-04-05T06:50:17.152Z,51.80
2019-04-05T06:52:46.466Z,51.90
2019-04-05T06:55:16.354Z,51.90
2019-04-05T06:57:45.655Z,52.00
2019-04-05T07:00:15.125Z,52.10
2019-04-05T07:02:44.567Z,52.10
2019-04-05T07:05:13.890Z,52.20
2019-04-05T07:07:43.349Z,52.10
2019-04-05T07:10:12.771Z,52.20
2019-04-05T07:12:42.544Z,52.20
2019-04-05T07:15:12.232Z,52.10
2019-04-05T07:17:41.829Z,52.00
2019-04-05T07:20:11.200Z,51.90
2019-04-05T07:22:40.700Z,51.80
2019-04-05T07:25:10.346Z,51.90
2019-04-05T07:27:39.955Z,51.90
2019-04-05T07:30:09.770Z,52.00
2019-04-05T07:32:39.082Z,52.00
2019-04-05T07:35:08.568Z,52.00
2019-04-05T07:37:37.889Z,52.10
2019-04-05T07:40:07.374Z,52.70
2019-04-05T07:42:37.126Z,52.00
2019-04-05T07:45:07.371Z,51.90
2019-04-05T07:47:36.893Z,51.90
2019-04-05T07:50:07.483Z,51.90
2019-04-05T07:52:36.783Z,51.80
2019-04-05T07:55:07.343Z,51.90
2019-04-05T07:57:36.624Z,51.90
2019-04-05T08:00:10.409Z,51.90
2019-04-05T08:02:39.700Z,52.00
2019-04-05T08:05:09.385Z,52.00
2019-04-05T08:07:39.920Z,52.00
2019-04-05T08:10:09.229Z,52.00
2019-04-05T08:12:38.930Z,52.60
2019-04-05T08:15:09.238Z,52.00
2019-04-05T08:17:38.556Z,51.90
2019-04-05T08:20:08.117Z,51.80
2019-04-05T08:22:37.403Z,51.70
2019-04-05T08:25:07.384Z,51.80
2019-04-05T08:27:36.851Z,51.80
2019-04-05T08:30:07.623Z,51.90
2019-04-05T08:32:36.937Z,51.80
2019-04-05T08:35:07.382Z,51.90
2019-04-05T08:37:36.710Z,51.90
2019-04-05T08:40:09.087Z,51.90
2019-04-05T08:42:38.417Z,51.90
2019-04-05T08:45:08.331Z,51.80
2019-04-05T08:47:38.010Z,51.90
2019-04-05T08:50:07.603Z,51.80
2019-04-05T08:52:37.193Z,51.70
2019-04-05T08:55:07.542Z,51.70
2019-04-05T08:57:37.022Z,51.70
2019-04-05T09:00:07.761Z,51.80
2019-04-05T09:02:37.319Z,51.80
2019-04-05T09:05:08.510Z,51.80
2019-04-05T09:07:37.791Z,51.90
2019-04-05T09:10:08.808Z,51.90
2019-04-05T09:12:38.285Z,51.80
2019-04-05T09:15:08.141Z,51.80
2019-04-05T09:17:37.606Z,51.80
2019-04-05T09:20:07.100Z,51.80
2019-04-05T09:22:36.401Z,51.80
2019-04-05T09:25:07.322Z,51.70
2019-04-05T09:27:36.585Z,51.70
2019-04-05T09:30:07.487Z,51.70
2019-04-05T09:32:37.208Z,51.70
2019-04-05T09:35:07.088Z,51.70
2019-04-05T09:37:36.533Z,51.80
2019-04-05T09:40:07.255Z,51.80
2019-04-05T09:42:36.524Z,51.80
2019-04-05T09:45:07.470Z,51.80
2019-04-05T09:47:36.761Z,51.90
2019-04-05T09:50:07.399Z,51.60
2019-04-05T09:52:39.877Z,51.20
2019-04-05T09:55:08.327Z,51.60
2019-04-05T09:57:37.789Z,52.00
2019-04-05T10:00:09.767Z,51.60
2019-04-05T10:02:39.425Z,51.50
2019-04-05T10:05:09.752Z,51.50
2019-04-05T10:07:48.705Z,51.60
2019-04-05T10:10:10.332Z,51.70
2019-04-05T10:12:39.606Z,51.80
2019-04-05T10:15:09.523Z,51.90
2019-04-05T10:17:38.927Z,51.90
2019-04-05T10:20:08.950Z,51.70
2019-04-05T10:22:38.399Z,51.60
2019-04-05T10:25:08.243Z,51.50
2019-04-05T10:27:37.749Z,51.60
2019-04-05T10:30:11.246Z,51.60
2019-04-05T10:32:40.879Z,51.60
2019-04-05T10:35:10.340Z,51.70
2019-04-05T10:37:39.927Z,51.70
2019-04-05T10:40:09.406Z,51.60
2019-04-05T10:42:39.057Z,51.70
2019-04-05T10:45:12.450Z,51.90
2019-04-05T10:47:42.282Z,52.00
2019-04-05T10:50:13.228Z,51.90
2019-04-05T10:52:42.494Z,51.90
2019-04-05T10:55:12.353Z,52.00
2019-04-05T10:57:42.349Z,52.00
2019-04-05T11:00:12.655Z,51.90
2019-04-05T11:02:41.961Z,51.90
2019-04-05T11:05:11.328Z,51.90
2019-04-05T11:07:40.641Z,51.90
2019-04-05T11:10:10.109Z,52.00
2019-04-05T11:12:39.933Z,51.80
2019-04-05T11:15:10.221Z,51.80
2019-04-05T11:17:41.446Z,51.90
2019-04-05T11:20:21.351Z,51.80
2019-04-05T11:22:46.721Z,52.00
2019-04-05T11:25:15.646Z,51.70
2019-04-05T11:27:45.165Z,51.50
2019-04-05T11:30:15.012Z,51.50
2019-04-05T11:32:44.553Z,52.00
2019-04-05T11:35:15.034Z,51.80
2019-04-05T11:37:44.642Z,51.70
2019-04-05T11:40:14.404Z,51.80
2019-04-05T11:42:43.975Z,51.60
2019-04-05T11:45:13.373Z,51.70
2019-04-05T11:47:43.503Z,51.80
2019-04-05T11:50:13.171Z,51.70
2019-04-05T11:52:42.487Z,51.70
2019-04-05T11:55:12.215Z,52.00
2019-04-05T11:57:42.050Z,52.00
2019-04-05T12:00:14.259Z,52.00
2019-04-05T12:02:48.341Z,51.80
2019-04-05T12:05:20.352Z,51.90
2019-04-05T12:07:49.360Z,52.00
2019-04-05T12:10:19.472Z,51.90
2019-04-05T12:12:48.978Z,51.90
2019-04-05T12:15:18.523Z,51.80
2019-04-05T12:17:47.773Z,51.80
2019-04-05T12:20:17.173Z,51.80
2019-04-05T12:22:47.041Z,51.90
2019-04-05T12:25:16.328Z,51.90
2019-04-05T12:27:45.875Z,51.90
2019-04-05T12:30:19.451Z,51.80
2019-04-05T12:32:49.442Z,51.90
2019-04-05T12:35:21.400Z,51.90
2019-04-05T12:37:50.867Z,51.90
2019-04-05T12:40:20.718Z,52.10
2019-04-05T12:42:52.777Z,52.00
2019-04-05T12:45:21.025Z,51.90
2019-04-05T12:47:50.819Z,51.80
2019-04-05T12:50:20.364Z,51.70
2019-04-05T12:52:49.961Z,51.60
2019-04-05T12:55:23.859Z,51.90
2019-04-05T12:57:50.392Z,51.90
2019-04-05T13:00:21.146Z,51.80
2019-04-05T13:02:50.982Z,51.80
2019-04-05T13:05:21.490Z,52.00
2019-04-05T13:07:52.604Z,52.00
2019-04-05T13:10:25.126Z,51.90
2019-04-05T13:12:56.766Z,51.90
2019-04-05T13:15:24.234Z,51.90
2019-04-05T13:17:53.759Z,51.80
2019-04-05T13:20:23.226Z,51.80
2019-04-05T13:22:52.457Z,51.90
2019-04-05T13:25:23.039Z,52.00
2019-04-05T13:27:52.940Z,52.00
2019-04-05T13:30:22.232Z,52.00
2019-04-05T13:32:53.419Z,51.90
2019-04-05T13:35:22.588Z,52.00
2019-04-05T13:37:51.853Z,52.00
2019-04-05T13:40:21.424Z,52.10
2019-04-05T13:42:50.706Z,52.00
2019-04-05T13:45:20.426Z,52.00
2019-04-05T13:47:50.053Z,52.00
2019-04-05T13:50:19.586Z,52.00
2019-04-05T13:52:49.546Z,52.10
2019-04-05T13:55:18.873Z,51.90
2019-04-05T13:57:48.410Z,52.00
2019-04-05T14:00:18.573Z,52.00
2019-04-05T14:02:50.109Z,51.90
2019-04-05T14:05:19.030Z,51.90
2019-04-05T14:07:48.755Z,52.00
2019-04-05T14:10:18.229Z,52.00
2019-04-05T14:12:47.907Z,52.50
2019-04-05T14:15:17.370Z,52.60
2019-04-05T14:17:49.092Z,53.00
2019-04-05T14:20:19.498Z,52.90
2019-04-05T14:22:50.820Z,53.00
2019-04-05T14:25:19.351Z,52.80
2019-04-05T14:27:48.914Z,52.80
2019-04-05T14:30:18.400Z,52.90
2019-04-05T14:32:51.088Z,52.90
2019-04-05T14:35:20.142Z,53.00
2019-04-05T14:37:49.964Z,53.00
2019-04-05T14:40:20.107Z,53.20
2019-04-05T14:42:49.391Z,53.80
2019-04-05T14:45:18.702Z,53.80
2019-04-05T14:47:49.189Z,53.90
2019-04-05T14:50:18.921Z,54.30
2019-04-05T14:52:49.546Z,54.50
2019-04-05T14:55:20.367Z,55.00
2019-04-05T14:57:49.658Z,55.40
2019-04-05T15:00:19.235Z,55.70
2019-04-05T15:02:48.531Z,55.70
2019-04-05T15:05:17.811Z,55.90
2019-04-05T15:07:50.873Z,55.80
2019-04-05T15:10:18.192Z,55.60
2019-04-05T15:12:47.781Z,55.80
2019-04-05T15:15:17.033Z,55.80
2019-04-05T15:17:48.199Z,55.50
2019-04-05T15:20:17.193Z,55.20
2019-04-05T15:22:46.482Z,54.50
2019-04-05T15:25:17.854Z,54.30
2019-04-05T15:27:46.614Z,54.60
2019-04-05T15:30:15.883Z,54.70
2019-04-05T15:32:45.346Z,54.80
2019-04-05T15:35:14.951Z,54.70
2019-04-05T15:37:44.332Z,54.90
2019-04-05T15:40:16.453Z,55.30
2019-04-05T15:42:46.688Z,56.60
2019-04-05T15:45:16.632Z,56.40
2019-04-05T15:47:45.974Z,56.50
2019-04-05T15:50:15.365Z,56.80
2019-04-05T15:52:44.646Z,56.70
2019-04-05T15:55:14.794Z,56.60
2019-04-05T15:57:44.178Z,56.60
2019-04-05T16:00:14.936Z,57.20
2019-04-05T16:02:44.212Z,57.60
2019-04-05T16:05:14.121Z,57.70
2019-04-05T16:07:43.503Z,57.50
2019-04-05T16:10:13.002Z,57.30
2019-04-05T16:12:42.353Z,57.10
2019-04-05T16:15:11.729Z,56.90
2019-04-05T16:17:40.986Z,56.60
2019-04-05T16:20:10.999Z,56.50
2019-04-05T16:22:40.284Z,56.30
2019-04-05T16:25:09.684Z,56.10
2019-04-05T16:27:39.064Z,56.10
2019-04-05T16:30:08.456Z,56.00
2019-04-05T16:32:37.741Z,55.90
2019-04-05T16:35:07.748Z,55.80
2019-04-05T16:37:37.031Z,55.70
2019-04-05T16:40:07.181Z,55.70
2019-04-05T16:42:36.512Z,55.80
2019-04-05T16:45:07.173Z,56.00
2019-04-05T16:47:36.464Z,55.90
2019-04-05T16:50:09.176Z,55.80
2019-04-05T16:52:45.145Z,55.90
2019-04-05T16:55:11.122Z,56.00
2019-04-05T16:57:40.529Z,55.80
2019-04-05T17:00:12.036Z,55.90
2019-04-05T17:02:41.456Z,55.90
2019-04-05T17:05:11.400Z,56.10
2019-04-05T17:07:40.685Z,56.10
2019-04-05T17:10:10.175Z,56.30
2019-04-05T17:12:39.649Z,56.20
2019-04-05T17:15:09.162Z,56.10
2019-04-05T17:17:38.482Z,56.20
2019-04-05T17:20:07.935Z,56.20
2019-04-05T17:22:37.226Z,56.50
2019-04-05T17:25:07.191Z,55.90
2019-04-05T17:27:36.495Z,55.90
2019-04-05T17:30:06.923Z,56.10
2019-04-05T17:32:36.572Z,56.40
2019-04-05T17:35:06.976Z,56.70
2019-04-05T17:37:36.367Z,57.10
2019-04-05T17:40:06.939Z,56.90
2019-04-05T17:42:36.230Z,57.30
2019-04-05T17:45:07.029Z,57.40
2019-04-05T17:47:36.362Z,57.30
2019-04-05T17:50:10.562Z,57.30
2019-04-05T17:52:39.973Z,57.20
2019-04-05T17:55:09.265Z,57.10
2019-04-05T17:57:38.563Z,57.40
2019-04-05T18:00:12.807Z,57.50
2019-04-05T18:02:43.172Z,57.50
2019-04-05T18:05:12.861Z,57.80
2019-04-05T18:07:42.169Z,57.80
2019-04-05T18:10:13.866Z,58.20
2019-04-05T18:12:42.447Z,58.70
2019-04-05T18:15:11.997Z,59.10
2019-04-05T18:17:41.354Z,59.50
2019-04-05T18:20:10.927Z,59.90
2019-04-05T18:22:40.243Z,60.30
2019-04-05T18:25:09.588Z,60.40
2019-04-05T18:27:38.923Z,60.80
2019-04-05T18:30:08.420Z,60.90
2019-04-05T18:32:37.721Z,61.10
2019-04-05T18:35:07.209Z,61.30
2019-04-05T18:37:36.612Z,61.50
2019-04-05T18:40:07.167Z,61.60
2019-04-05T18:42:36.560Z,61.70
2019-04-05T18:45:07.158Z,61.60
2019-04-05T18:47:36.550Z,61.60
2019-04-05T18:50:06.918Z,60.50
2019-04-05T18:52:36.261Z,59.30
2019-04-05T18:55:06.804Z,59.40
2019-04-05T18:57:36.099Z,59.50
2019-04-05T19:00:06.599Z,59.50
2019-04-05T19:02:35.890Z,59.70
2019-04-05T19:05:09.422Z,60.10
2019-04-05T19:07:38.689Z,60.20
2019-04-05T19:10:08.374Z,59.80
2019-04-05T19:12:37.731Z,57.30
2019-04-05T19:15:07.753Z,58.50
2019-04-05T19:17:37.255Z,57.10
2019-04-05T19:20:07.514Z,57.50
2019-04-05T19:22:36.894Z,58.70
2019-04-05T19:25:09.084Z,57.70
2019-04-05T19:27:38.705Z,58.30
2019-04-05T19:50:17.824Z,59.80
2019-04-05T19:52:47.114Z,59.00
2019-04-05T19:55:16.502Z,59.40
2019-04-05T19:57:45.831Z,60.20
2019-04-05T20:00:15.734Z,60.40
2019-04-05T20:02:45.122Z,58.60
2019-04-05T20:05:14.428Z,58.90
2019-04-05T20:07:44.031Z,57.80
2019-04-05T20:10:13.523Z,57.80
2019-04-05T20:12:42.798Z,57.90
2019-04-05T20:15:12.266Z,57.90
2019-04-05T20:17:41.539Z,57.80
2019-04-05T20:20:14.164Z,59.50
2019-04-05T20:22:43.442Z,57.80
2019-04-05T20:25:12.937Z,58.20
2019-04-05T20:27:42.210Z,57.50
2019-04-05T20:30:11.590Z,57.60
2019-04-05T20:32:40.989Z,57.70
2019-04-05T20:35:10.320Z,57.50
2019-04-05T20:37:40.211Z,57.10
2019-04-05T20:40:09.794Z,57.30
2019-04-05T20:42:39.089Z,57.30
2019-04-05T20:45:08.562Z,57.00
2019-04-05T20:47:37.851Z,56.90
2019-04-05T20:50:07.622Z,57.00
2019-04-05T20:52:36.960Z,57.00
2019-04-05T20:55:07.534Z,57.70
2019-04-05T20:57:36.898Z,58.30
2019-04-05T21:00:12.082Z,59.40
2019-04-05T21:02:42.048Z,58.40
2019-04-05T21:05:11.417Z,59.70
2019-04-05T21:07:40.793Z,58.30
2019-04-05T21:10:10.518Z,58.90
2019-04-05T21:12:41.787Z,57.30
2019-04-05T21:15:10.704Z,57.70
2019-04-05T21:17:40.036Z,58.30
2019-04-05T21:20:09.405Z,58.60
2019-04-05T21:22:38.685Z,58.10
2019-04-05T21:25:08.134Z,58.60
2019-04-05T21:27:37.571Z,58.70
2019-04-05T21:30:08.145Z,57.00
2019-04-05T21:32:37.460Z,58.60
2019-04-05T21:35:07.546Z,58.20
2019-04-05T21:37:36.866Z,58.70
2019-04-05T21:40:06.869Z,58.90
2019-04-05T21:42:36.290Z,57.80
2019-04-05T21:45:06.564Z,57.80
2019-04-05T21:47:36.100Z,57.90
2019-04-05T21:50:06.959Z,57.20
2019-04-05T21:52:36.243Z,57.40
2019-04-05T21:55:07.030Z,57.30
2019-04-05T21:57:36.310Z,56.90
2019-04-05T22:00:15.784Z,56.50
2019-04-05T22:02:45.067Z,56.90
2019-04-05T22:05:14.455Z,57.10
2019-04-05T22:07:43.763Z,57.30
2019-04-05T22:10:13.029Z,57.30
2019-04-05T22:12:42.482Z,57.60
2019-04-05T22:15:11.775Z,57.50
2019-04-05T22:17:41.040Z,57.10
2019-04-05T22:20:10.430Z,56.70
2019-04-05T22:22:39.843Z,55.90
2019-04-05T22:25:09.377Z,54.80
2019-04-05T22:27:38.770Z,55.60
2019-04-05T22:30:08.053Z,55.00
2019-04-05T22:32:37.321Z,54.50
2019-04-05T22:35:08.022Z,55.30
2019-04-05T22:37:39.529Z,54.90
2019-04-05T22:40:08.643Z,55.00
2019-04-05T22:42:37.940Z,55.10
2019-04-05T22:45:07.655Z,55.30
2019-04-05T22:47:37.025Z,55.60
2019-04-05T22:50:09.602Z,54.50
2019-04-05T22:52:39.291Z,54.00
2019-04-05T22:55:11.640Z,52.70
2019-04-05T22:57:39.288Z,53.20
2019-04-05T23:00:08.963Z,53.70
2019-04-05T23:02:38.245Z,54.00
2019-04-05T23:05:09.317Z,54.20
2019-04-05T23:07:38.720Z,54.20
2019-04-05T23:10:08.900Z,54.00
2019-04-05T23:12:38.881Z,53.20
2019-04-05T23:15:08.623Z,52.60
2019-04-05T23:17:38.689Z,52.40
2019-04-05T23:20:08.747Z,53.50
2019-04-05T23:22:38.824Z,53.70
2019-04-05T23:25:08.450Z,54.00
2019-04-05T23:27:37.729Z,54.70
2019-04-05T23:30:07.818Z,54.90
2019-04-05T23:32:37.122Z,54.70
2019-04-05T23:35:07.176Z,54.40
2019-04-05T23:37:36.721Z,54.90
2019-04-05T23:40:07.016Z,54.90
2019-04-05T23:42:36.290Z,54.60
2019-04-05T23:45:06.588Z,54.70
2019-04-05T23:47:36.226Z,54.70
2019-04-05T23:50:06.097Z,54.80
2019-04-05T23:52:35.456Z,54.90
2019-04-05T23:55:05.330Z,54.90
2019-04-05T23:57:34.615Z,54.90
